Time;durP1;ratioP1;P1;durP2;ratioP2;P2;SDS_P1;SDS_P2;PMS_P1;PMS_P2;Temp;Humidity;BMP_temperature;BMP_pressure;BME280_temperature;BME280_humidity;BME280_pressure;Samples;Min_cycle;Max_cycle;Signal;HPM_P1;HPM_P2
2022/02/06 00:00:09;;;;;;;3.83;1.45;;;4.50;99.90;;;;;;5028317;28;20048;-90
2022/02/06 00:02:42;;;;;;;7.03;1.58;;;4.40;99.90;;;;;;5030541;28;20434;-90
2022/02/06 00:05:11;;;;;;;6.72;1.65;;;4.50;99.90;;;;;;5030116;28;20092;-88
2022/02/06 00:07:39;;;;;;;4.47;1.40;;;4.50;99.90;;;;;;5030086;28;20060;-90
2022/02/06 00:10:06;;;;;;;1.92;1.35;;;4.50;99.90;;;;;;5027964;28;20073;-88
2022/02/06 00:12:39;;;;;;;6.03;1.92;;;4.50;99.90;;;;;;5029048;28;20128;-87
2022/02/06 00:15:06;;;;;;;4.68;1.40;;;4.50;99.90;;;;;;5029699;28;20486;-88
2022/02/06 00:17:34;;;;;;;5.32;1.58;;;4.50;99.90;;;;;;5012027;28;20153;-91
2022/02/06 00:20:02;;;;;;;7.18;1.50;;;4.50;99.90;;;;;;5029611;28;20129;-89
2022/02/06 00:22:35;;;;;;;8.93;1.48;;;4.50;99.90;;;;;;5030167;28;20049;-89
2022/02/06 00:27:52;;;;;;;5.50;1.40;;;4.40;99.90;;;;;;5014756;28;20050;-89
2022/02/06 00:30:39;;;;;;;6.50;1.27;;;4.50;99.90;;;;;;5029683;28;20490;-88
2022/02/06 00:43:30;;;;;;;12.88;2.60;;;4.20;99.90;;;;;;5013932;28;20508;-89
2022/02/06 00:45:56;;;;;;;6.07;1.83;;;4.10;99.90;;;;;;5029265;28;20058;-90
2022/02/06 00:48:26;;;;;;;4.45;1.60;;;4.10;99.90;;;;;;5029286;28;20490;-88
2022/02/06 00:51:11;;;;;;;10.55;2.17;;;4.00;99.90;;;;;;5028509;28;20050;-92
2022/02/06 00:53:38;;;;;;;8.52;1.80;;;3.90;99.90;;;;;;5012828;28;20053;-90
2022/02/06 00:56:05;;;;;;;6.57;1.50;;;4.00;99.90;;;;;;5029155;28;20049;-90
2022/02/06 00:58:32;;;;;;;6.88;1.90;;;3.90;99.90;;;;;;5014165;28;20054;-89
2022/02/06 01:01:00;;;;;;;6.72;1.63;;;3.90;99.90;;;;;;5013900;28;20052;-88
2022/02/06 01:03:27;;;;;;;4.07;1.63;;;3.90;99.90;;;;;;5029624;28;20050;-88
2022/02/06 01:05:55;;;;;;;5.57;2.00;;;3.90;99.90;;;;;;5028514;28;20056;-91
2022/02/06 01:08:22;;;;;;;6.85;1.60;;;3.80;99.90;;;;;;5028956;28;20476;-89
2022/02/06 01:10:49;;;;;;;4.03;1.48;;;3.80;99.90;;;;;;5029196;28;20246;-88
2022/02/06 01:13:22;;;;;;;5.72;1.58;;;3.80;99.90;;;;;;5027913;28;20046;-91
2022/02/06 01:16:02;;;;;;;3.90;1.67;;;3.80;99.90;;;;;;5013481;28;20054;-90
2022/02/06 01:19:06;;;;;;;3.38;1.40;;;3.80;99.90;;;;;;5029259;28;20050;-92
2022/02/06 01:21:46;;;;;;;2.33;1.52;;;3.80;99.90;;;;;;5010958;28;20494;-90
2022/02/06 01:24:18;;;;;;;3.00;1.50;;;3.80;99.90;;;;;;5028090;28;20058;-89
2022/02/06 01:26:56;;;;;;;2.55;1.65;;;3.80;99.90;;;;;;5028738;28;20052;-89
2022/02/06 01:32:06;;;;;;;7.13;1.90;;;4.00;99.90;;;;;;5013485;28;20074;-89
2022/02/06 01:34:42;;;;;;;2.42;1.48;;;4.10;99.90;;;;;;5028671;28;20058;-89
2022/02/06 01:37:23;;;;;;;4.47;1.55;;;4.10;99.90;;;;;;5028670;28;20101;-89
2022/02/06 01:42:42;;;;;;;6.78;1.95;;;4.20;99.90;;;;;;5013175;28;20054;-89
2022/02/06 02:01:46;;;;;;;7.28;1.40;;;4.40;99.90;;;;;;5013284;28;20138;-92
2022/02/06 02:07:05;;;;;;;6.47;1.48;;;4.40;99.90;;;;;;5013526;28;20057;-92
2022/02/06 02:12:39;;;;;;;5.70;1.67;;;4.40;99.90;;;;;;5012466;28;20050;-90
2022/02/06 02:23:46;;;;;;;8.10;1.40;;;4.50;99.90;;;;;;5013440;28;20050;-87
2022/02/06 02:26:44;;;;;;;8.88;1.67;;;4.60;99.90;;;;;;5028656;28;20132;-89
2022/02/06 02:29:44;;;;;;;6.03;1.58;;;4.60;99.90;;;;;;5027321;28;20054;-88
2022/02/06 02:32:40;;;;;;;4.45;1.40;;;4.60;99.90;;;;;;5012771;28;20050;-89
2022/02/06 02:48:38;;;;;;;7.57;1.20;;;4.50;99.90;;;;;;5016373;28;20085;-90
2022/02/06 02:51:07;;;;;;;7.72;1.90;;;4.50;99.90;;;;;;5031355;28;20049;-90
2022/02/06 02:53:40;;;;;;;3.38;1.23;;;4.50;99.90;;;;;;5031373;28;20053;-87
2022/02/06 02:56:22;;;;;;;6.10;1.70;;;4.40;99.90;;;;;;5030861;28;20510;-88
2022/02/06 02:59:00;;;;;;;4.72;1.60;;;4.30;99.90;;;;;;5030602;28;20399;-90
2022/02/06 03:01:34;;;;;;;8.38;2.25;;;4.20;99.90;;;;;;5030971;28;20052;-88
2022/02/06 03:04:00;;;;;;;5.90;1.83;;;4.00;99.90;;;;;;5030341;28;20068;-89
2022/02/06 03:06:27;;;;;;;4.93;1.70;;;3.90;99.90;;;;;;5030884;28;20053;-90
2022/02/06 03:08:56;;;;;;;5.63;1.83;;;3.80;99.90;;;;;;5030739;28;20117;-93
2022/02/06 03:11:22;;;;;;;7.43;1.58;;;3.80;99.90;;;;;;5031073;28;20054;-88
2022/02/06 03:13:58;;;;;;;3.53;1.50;;;3.70;99.90;;;;;;5030149;28;20149;-88
2022/02/06 03:16:29;;;;;;;5.45;1.65;;;3.70;99.90;;;;;;5028422;28;20068;-89
2022/02/06 03:19:04;;;;;;;7.90;1.92;;;3.60;99.90;;;;;;5030292;28;20490;-88
2022/02/06 03:21:33;;;;;;;1.73;1.27;;;3.60;99.90;;;;;;5030896;28;20054;-89
2022/02/06 03:26:51;;;;;;;5.00;1.30;;;3.60;99.90;;;;;;5014534;28;20046;-92
2022/02/06 03:29:19;;;;;;;5.20;1.27;;;3.60;99.90;;;;;;5030651;28;20415;-87
2022/02/06 03:31:47;;;;;;;5.78;1.60;;;3.70;99.90;;;;;;5030901;28;20061;-89
2022/02/06 03:34:15;;;;;;;7.22;1.80;;;3.70;99.90;;;;;;5029902;28;20056;-88
2022/02/06 03:36:42;;;;;;;2.75;1.25;;;3.60;99.90;;;;;;5028781;28;20050;-87
2022/02/06 03:39:12;;;;;;;5.45;1.50;;;3.60;99.90;;;;;;5030109;28;20054;-88
2022/02/06 03:41:53;;;;;;;2.42;1.00;;;3.70;99.90;;;;;;5029645;28;20242;-88
2022/02/06 03:50:00;;;;;;;3.60;1.52;;;3.70;99.90;;;;;;5014825;28;20089;-88
2022/02/06 03:52:34;;;;;;;10.50;1.58;;;3.60;99.90;;;;;;5029771;28;20145;-88
2022/02/06 03:55:02;;;;;;;3.88;1.20;;;3.60;99.90;;;;;;5034310;28;20545;-91
2022/02/06 03:57:29;;;;;;;3.75;1.08;;;3.60;99.90;;;;;;5036190;28;20066;-89
2022/02/06 03:59:56;;;;;;;4.32;1.15;;;3.60;99.90;;;;;;5032417;28;20536;-90
2022/02/06 04:02:23;;;;;;;5.88;1.42;;;3.60;99.90;;;;;;5029807;28;20478;-87
2022/02/06 04:04:49;;;;;;;4.05;1.05;;;3.70;99.90;;;;;;5029835;28;20100;-90
2022/02/06 04:07:19;;;;;;;5.75;1.20;;;3.70;99.90;;;;;;5030096;28;20062;-88
2022/02/06 04:09:51;;;;;;;3.50;1.40;;;3.60;99.90;;;;;;5026801;28;20069;-87
2022/02/06 04:12:19;;;;;;;4.53;1.30;;;3.60;99.90;;;;;;5028881;28;20145;-91
2022/02/06 04:15:02;;;;;;;3.10;1.10;;;3.60;99.90;;;;;;5029644;28;20049;-90
2022/02/06 04:17:36;;;;;;;1.42;1.27;;;3.60;99.90;;;;;;5029950;28;20137;-89
2022/02/06 04:20:03;;;;;;;;;;;3.60;99.90;;;;;;5028793;28;20050;-90
2022/02/06 04:22:30;;;;;;;3.47;0.90;;;3.60;99.90;;;;;;5012042;28;19927;-90
2022/02/06 04:24:57;;;;;;;2.45;0.70;;;3.50;99.90;;;;;;5028171;28;20465;-89
2022/02/06 04:27:24;;;;;;;2.15;0.65;;;3.50;99.90;;;;;;5028477;28;20356;-90
2022/02/06 04:29:53;;;;;;;3.80;1.08;;;3.50;99.90;;;;;;5028703;28;20099;-89
2022/02/06 04:32:21;;;;;;;2.90;0.75;;;3.50;99.90;;;;;;5028520;28;20054;-90
2022/02/06 04:34:50;;;;;;;0.73;0.60;;;3.50;99.90;;;;;;5029170;28;20053;-91
2022/02/06 04:37:34;;;;;;;1.42;0.60;;;3.50;99.90;;;;;;5029362;28;20054;-91
2022/02/06 04:50:59;;;;;;;0.35;0.35;;;3.60;99.90;;;;;;5012331;28;20056;-92
2022/02/06 05:17:57;;;;;;;2.13;0.80;;;3.90;99.90;;;;;;5012043;28;20418;-90
2022/02/06 05:28:43;;;;;;;1.30;1.10;;;4.00;99.90;;;;;;5012717;28;20406;-90
2022/02/06 05:33:55;;;;;;;4.75;0.95;;;4.20;99.90;;;;;;5010568;28;20046;-92
2022/02/06 05:36:21;;;;;;;2.40;1.00;;;4.20;99.90;;;;;;5028459;28;20060;-91
2022/02/06 05:38:48;;;;;;;3.60;1.20;;;4.20;99.90;;;;;;5026762;28;20434;-93
2022/02/06 05:41:15;;;;;;;6.38;1.65;;;4.30;99.90;;;;;;5027958;28;20554;-91
2022/02/06 05:43:41;;;;;;;2.88;0.90;;;4.30;99.90;;;;;;5027771;28;20517;-91
2022/02/06 05:46:08;;;;;;;4.43;1.10;;;4.30;99.90;;;;;;5027799;28;20553;-91
2022/02/06 05:48:35;;;;;;;3.78;1.30;;;4.30;99.90;;;;;;5026945;28;20050;-90
2022/02/06 05:51:02;;;;;;;5.53;1.27;;;4.30;99.90;;;;;;5028039;28;20058;-94
2022/02/06 05:53:28;;;;;;;3.08;1.08;;;4.40;99.90;;;;;;5029313;28;20054;-88
2022/02/06 05:55:55;;;;;;;3.15;1.17;;;4.50;99.90;;;;;;5028149;28;20049;-91
2022/02/06 05:58:25;;;;;;;3.40;0.80;;;4.50;99.90;;;;;;5028329;28;20094;-89
2022/02/06 06:00:52;;;;;;;2.58;1.00;;;4.50;99.90;;;;;;5027160;28;20056;-90
2022/02/06 06:03:19;;;;;;;3.35;0.77;;;4.60;99.90;;;;;;5016683;28;20481;-90
2022/02/06 06:05:45;;;;;;;5.35;1.38;;;4.50;99.90;;;;;;5012319;28;20050;-91
2022/02/06 06:08:12;;;;;;;3.70;0.95;;;4.60;99.90;;;;;;5030254;28;20053;-91
2022/02/06 06:10:39;;;;;;;2.92;1.02;;;4.60;99.90;;;;;;5031510;28;20565;-90
2022/02/06 06:13:06;;;;;;;3.92;1.10;;;4.60;99.90;;;;;;5030429;28;20046;-92
2022/02/06 06:15:32;;;;;;;3.00;1.15;;;4.70;99.90;;;;;;5031238;28;20056;-90
2022/02/06 06:18:04;;;;;;;6.55;1.40;;;4.60;99.90;;;;;;5032069;28;20056;-89
2022/02/06 06:20:32;;;;;;;3.92;1.30;;;4.60;99.90;;;;;;5032484;28;20045;-87
2022/02/06 06:22:59;;;;;;;5.20;1.10;;;4.60;99.90;;;;;;5032277;28;20064;-89
2022/02/06 06:25:33;;;;;;;3.65;1.60;;;4.50;99.90;;;;;;5031622;28;20052;-89
2022/02/06 06:28:00;;;;;;;3.85;1.23;;;4.40;99.90;;;;;;5032109;28;20399;-91
2022/02/06 06:30:27;;;;;;;2.50;1.00;;;4.40;99.90;;;;;;5030397;28;20422;-91
2022/02/06 06:32:54;;;;;;;4.22;1.02;;;4.30;99.90;;;;;;5032213;28;20260;-90
2022/02/06 06:35:41;;;;;;;1.00;0.70;;;4.30;99.90;;;;;;5016385;28;20045;-91
2022/02/06 06:38:08;;;;;;;2.03;0.80;;;4.30;99.90;;;;;;5032493;28;20054;-91
2022/02/06 06:40:34;;;;;;;2.45;1.05;;;4.30;99.90;;;;;;5031802;28;20057;-88
2022/02/06 06:43:01;;;;;;;1.80;0.68;;;4.20;99.90;;;;;;5032329;28;20049;-92
2022/02/06 06:45:29;;;;;;;2.47;0.82;;;4.30;99.90;;;;;;5031389;28;20260;-91
2022/02/06 06:47:57;;;;;;;3.53;1.08;;;4.20;99.90;;;;;;5030438;28;20081;-88
2022/02/06 06:50:31;;;;;;;2.30;1.10;;;4.20;99.90;;;;;;5032387;28;20046;-90
2022/02/06 06:52:59;;;;;;;2.47;0.98;;;4.20;99.90;;;;;;5031814;28;20054;-89
2022/02/06 06:55:28;;;;;;;1.80;0.90;;;4.20;99.90;;;;;;5030769;28;20054;-92
2022/02/06 06:58:08;;;;;;;1.17;0.45;;;4.20;99.90;;;;;;5031715;28;20054;-91
2022/02/06 07:03:13;;;;;;;1.20;0.50;;;4.20;99.90;;;;;;5015772;28;20053;-91
2022/02/06 07:05:40;;;;;;;0.40;0.40;;;4.20;99.90;;;;;;5031660;28;20089;-92
2022/02/06 07:08:07;;;;;;;2.10;0.70;;;4.20;99.90;;;;;;5030319;28;20129;-90
2022/02/06 07:10:33;;;;;;;0.77;0.68;;;4.10;99.90;;;;;;5031415;28;20060;-89
2022/02/06 07:13:00;;;;;;;1.38;1.25;;;4.20;99.90;;;;;;5030468;28;20068;-91
2022/02/06 07:15:27;;;;;;;2.83;0.82;;;4.20;99.90;;;;;;5030582;28;20049;-93
2022/02/06 07:17:53;;;;;;;1.85;0.70;;;4.20;99.90;;;;;;5031478;28;20050;-91
2022/02/06 07:20:20;;;;;;;2.55;0.93;;;4.20;99.90;;;;;;5031365;28;20053;-90
2022/02/06 07:22:47;;;;;;;4.97;1.10;;;4.20;99.90;;;;;;5031024;28;20064;-90
2022/02/06 07:25:14;;;;;;;2.85;0.90;;;4.20;99.90;;;;;;5030571;28;20046;-91
2022/02/06 07:27:45;;;;;;;2.75;0.90;;;4.20;99.90;;;;;;5031840;28;20045;-90
2022/02/06 07:30:13;;;;;;;5.13;1.10;;;4.20;99.90;;;;;;5031339;28;20205;-90
2022/02/06 07:32:39;;;;;;;2.65;1.10;;;4.30;99.90;;;;;;5029320;28;20447;-91
2022/02/06 07:35:09;;;;;;;1.95;1.00;;;4.30;99.90;;;;;;5029423;28;20557;-92
2022/02/06 07:37:37;;;;;;;1.95;0.90;;;4.30;99.90;;;;;;5030488;28;20057;-91
2022/02/06 07:40:05;;;;;;;3.17;0.80;;;4.40;99.90;;;;;;5030226;28;20077;-89
2022/02/06 07:42:33;;;;;;;3.70;1.00;;;4.50;99.90;;;;;;5029332;28;20065;-90
2022/02/06 07:45:00;;;;;;;3.60;1.00;;;4.50;99.90;;;;;;5029492;28;20050;-90
2022/02/06 07:47:27;;;;;;;1.85;1.00;;;4.50;99.90;;;;;;5029117;28;20070;-92
2022/02/06 07:49:56;;;;;;;3.67;0.85;;;4.60;99.90;;;;;;5033210;28;20052;-91
2022/02/06 07:52:24;;;;;;;2.45;0.98;;;4.60;99.90;;;;;;5036014;28;20593;-93
2022/02/06 07:54:52;;;;;;;1.73;0.80;;;4.60;99.90;;;;;;5036844;28;20050;-90
2022/02/06 07:57:20;;;;;;;4.95;1.00;;;4.60;99.90;;;;;;5035740;28;20068;-91
2022/02/06 07:59:46;;;;;;;3.58;1.10;;;4.50;99.90;;;;;;5035363;28;20045;-89
2022/02/06 08:02:15;;;;;;;2.70;1.10;;;4.50;99.90;;;;;;5035923;28;20042;-92
2022/02/06 08:04:44;;;;;;;3.13;1.20;;;4.40;99.90;;;;;;5030794;28;20064;-90
2022/02/06 08:07:11;;;;;;;2.15;0.90;;;4.40;99.90;;;;;;5031592;28;20052;-91
2022/02/06 08:12:08;;;;;;;1.13;0.75;;;4.40;99.90;;;;;;5016422;28;20054;-89
2022/02/06 08:14:52;;;;;;;2.17;1.27;;;4.40;99.90;;;;;;5029312;28;20060;-93
2022/02/06 08:17:19;;;;;;;;;;;4.40;99.90;;;;;;5030534;28;20172;-89
2022/02/06 08:19:47;;;;;;;2.25;1.10;;;4.30;99.90;;;;;;5012763;28;19922;-92
2022/02/06 08:22:15;;;;;;;1.92;1.10;;;4.30;99.90;;;;;;5026405;28;20046;-92
2022/02/06 08:24:43;;;;;;;1.67;0.80;;;4.30;99.90;;;;;;5028333;28;20064;-89
2022/02/06 08:27:10;;;;;;;3.25;1.10;;;4.40;99.90;;;;;;5028478;28;20475;-89
2022/02/06 08:29:41;;;;;;;2.97;1.02;;;4.40;99.90;;;;;;5028634;28;20050;-91
2022/02/06 08:32:08;;;;;;;3.28;1.27;;;4.40;99.90;;;;;;5028984;28;20137;-89
2022/02/06 08:34:35;;;;;;;4.00;0.90;;;4.40;99.90;;;;;;5028335;28;20053;-93
2022/02/06 08:37:03;;;;;;;1.05;0.90;;;4.50;99.90;;;;;;5028691;28;20561;-89
2022/02/06 08:39:34;;;;;;;1.42;0.88;;;4.50;99.90;;;;;;5028196;28;20137;-89
2022/02/06 08:42:06;;;;;;;1.95;0.80;;;4.60;99.90;;;;;;5029019;28;20107;-90
2022/02/06 08:44:33;;;;;;;1.38;0.85;;;4.60;99.90;;;;;;5028882;28;20068;-88
2022/02/06 08:47:00;;;;;;;1.55;0.70;;;4.60;99.90;;;;;;5028924;28;20513;-87
2022/02/06 08:49:27;;;;;;;0.73;0.70;;;4.60;99.90;;;;;;5028973;28;20046;-91
2022/02/06 08:51:54;;;;;;;3.30;0.80;;;4.60;99.90;;;;;;5028715;28;20050;-92
2022/02/06 08:54:25;;;;;;;2.53;0.70;;;4.50;99.90;;;;;;5026971;28;20481;-92
2022/02/06 08:57:25;;;;;;;2.25;1.10;;;4.60;99.90;;;;;;5026553;28;20499;-90
2022/02/06 08:59:53;;;;;;;0.80;0.80;;;4.60;99.90;;;;;;5028619;28;20056;-92
2022/02/06 09:02:20;;;;;;;1.58;1.20;;;4.60;99.90;;;;;;5029152;28;20052;-91
2022/02/06 09:04:47;;;;;;;4.30;1.10;;;4.60;99.90;;;;;;5028510;28;20100;-90
2022/02/06 09:07:15;;;;;;;2.72;1.00;;;4.60;99.90;;;;;;5028458;28;20475;-93
2022/02/06 09:09:50;;;;;;;3.22;1.02;;;4.60;99.90;;;;;;5028211;28;20144;-91
2022/02/06 09:12:17;;;;;;;5.38;1.00;;;4.60;99.90;;;;;;5028540;28;20129;-91
2022/02/06 09:14:46;;;;;;;1.02;0.80;;;4.60;99.90;;;;;;5027097;28;20049;-89
2022/02/06 09:17:13;;;;;;;6.53;1.30;;;4.50;99.90;;;;;;5026922;28;20134;-91
2022/02/06 09:19:40;;;;;;;5.05;1.13;;;4.60;99.90;;;;;;5028571;28;20056;-90
2022/02/06 09:22:08;;;;;;;2.25;1.00;;;4.50;99.90;;;;;;5027358;28;20046;-91
2022/02/06 09:24:36;;;;;;;2.92;1.88;;;4.50;99.90;;;;;;5010598;28;20141;-91
2022/02/06 09:27:04;;;;;;;10.35;6.43;;;4.50;99.90;;;;;;5029141;28;20132;-92
2022/02/06 09:29:33;;;;;;;2.33;1.50;;;4.60;99.90;;;;;;5027763;28;20127;-93
2022/02/06 09:37:25;;;;;;;3.63;0.73;;;4.60;99.90;;;;;;5013193;28;20045;-94
2022/02/06 09:39:53;;;;;;;0.80;0.70;;;4.60;99.90;;;;;;5029804;28;20054;-93
2022/02/06 09:42:20;;;;;;;1.70;1.08;;;4.60;99.90;;;;;;5015510;28;20046;-93
2022/02/06 09:44:48;;;;;;;2.15;0.80;;;4.60;99.90;;;;;;5033844;28;20092;-89
2022/02/06 09:47:21;;;;;;;2.88;0.80;;;4.70;99.90;;;;;;5033213;28;20050;-91
2022/02/06 09:49:50;;;;;;;1.80;1.00;;;4.70;99.90;;;;;;5032499;28;20143;-90
2022/02/06 09:52:24;;;;;;;1.90;1.13;;;4.80;99.90;;;;;;5032531;28;20050;-92
2022/02/06 09:54:55;;;;;;;2.13;0.77;;;4.80;99.90;;;;;;5032839;28;20504;-91
2022/02/06 09:57:30;;;;;;;1.55;0.73;;;4.80;99.90;;;;;;5033322;28;20133;-94
2022/02/06 09:59:58;;;;;;;2.40;0.85;;;4.90;99.90;;;;;;5033236;28;20053;-93
2022/02/06 10:02:29;;;;;;;2.25;0.80;;;5.00;99.90;;;;;;5031905;28;20058;-90
2022/02/06 10:04:58;;;;;;;1.15;0.80;;;5.00;99.90;;;;;;5032249;28;20070;-92
2022/02/06 10:07:36;;;;;;;2.30;0.70;;;5.10;99.90;;;;;;5033265;28;20050;-92
2022/02/06 10:10:08;;;;;;;2.70;0.80;;;5.10;99.90;;;;;;5031331;28;20164;-90
2022/02/06 10:12:38;;;;;;;3.05;0.80;;;5.20;99.90;;;;;;5030757;28;20046;-91
2022/02/06 10:15:07;;;;;;;2.78;0.80;;;5.30;99.90;;;;;;5030982;28;20131;-91
2022/02/06 10:17:36;;;;;;;2.05;0.40;;;5.30;99.90;;;;;;5030295;28;20144;-88
2022/02/06 10:20:20;;;;;;;1.10;0.60;;;5.30;99.90;;;;;;5031293;28;20058;-90
2022/02/06 10:25:16;;;;;;;1.98;0.55;;;5.30;99.90;;;;;;5017605;28;20136;-92
2022/02/06 10:28:33;;;;;;;0.50;0.50;;;5.30;99.90;;;;;;5031822;28;20048;-91
2022/02/06 10:30:51;;;;;;;1.83;0.52;;;5.40;99.90;;;;;;5017063;28;20073;-94
2022/02/06 10:33:23;;;;;;;4.80;0.85;;;5.40;99.90;;;;;;5032316;28;20136;-92
2022/02/06 10:35:55;;;;;;;2.53;0.90;;;5.40;99.90;;;;;;5031780;28;20333;-88
2022/02/06 10:38:25;;;;;;;2.83;0.85;;;5.50;99.90;;;;;;5031708;28;20060;-91
2022/02/06 10:41:05;;;;;;;1.80;0.73;;;5.50;99.90;;;;;;5030195;28;20064;-92
2022/02/06 10:43:34;;;;;;;0.85;0.60;;;5.50;99.90;;;;;;5030852;28;20048;-93
2022/02/06 10:46:12;;;;;;;2.50;0.73;;;5.50;99.90;;;;;;5031300;28;20418;-89
2022/02/06 10:48:48;;;;;;;1.95;0.40;;;5.40;99.90;;;;;;5030349;28;20117;-93
2022/02/06 10:51:51;;;;;;;3.17;0.45;;;5.40;99.90;;;;;;5031281;28;20050;-92
2022/02/06 10:54:28;;;;;;;2.40;0.60;;;5.40;99.90;;;;;;5031639;28;20061;-90
2022/02/06 10:57:10;;;;;;;1.17;0.38;;;5.40;99.90;;;;;;5031216;28;20398;-91
2022/02/06 10:59:47;;;;;;;0.60;0.60;;;5.40;99.90;;;;;;5029193;28;20060;-89
2022/02/06 11:02:21;;;;;;;0.50;0.40;;;5.40;99.90;;;;;;5029879;28;20049;-89
2022/02/06 11:05:08;;;;;;;4.32;0.60;;;5.40;99.90;;;;;;5031092;28;20060;-88
2022/02/06 11:07:35;;;;;;;0.70;0.40;;;5.40;99.90;;;;;;5030133;28;20503;-89
2022/02/06 11:10:11;;;;;;;1.65;0.40;;;5.50;99.90;;;;;;5029581;28;20060;-87
2022/02/06 11:12:47;;;;;;;0.40;0.40;;;5.50;99.90;;;;;;5030208;28;20057;-90
2022/02/06 11:15:25;;;;;;;0.60;0.30;;;5.50;99.90;;;;;;5028012;28;20045;-92
2022/02/06 11:18:05;;;;;;;0.63;0.40;;;5.50;99.90;;;;;;5027814;28;20046;-92
2022/02/06 11:20:33;;;;;;;0.30;0.30;;;5.40;99.90;;;;;;5029245;28;20060;-90
2022/02/06 11:23:03;;;;;;;0.68;0.50;;;5.50;99.90;;;;;;5030926;28;20173;-92
2022/02/06 11:25:32;;;;;;;0.55;0.30;;;5.40;99.90;;;;;;5030915;28;20053;-90
2022/02/06 11:28:00;;;;;;;0.43;0.43;;;5.40;99.90;;;;;;5038493;28;20050;-92
2022/02/06 11:30:28;;;;;;;0.40;0.40;;;5.40;99.90;;;;;;5035860;28;20054;-89
2022/02/06 11:32:55;;;;;;;0.77;0.50;;;5.40;99.90;;;;;;5030013;28;20050;-93
2022/02/06 11:35:26;;;;;;;0.88;0.40;;;5.40;99.90;;;;;;5031098;28;20060;-89
2022/02/06 11:44:30;;;;;;;0.90;0.10;;;5.30;99.90;;;;;;5003597;28;20068;-93
2022/02/06 11:47:12;;;;;;;0.20;0.20;;;5.20;99.90;;;;;;5029249;28;20068;-89
2022/02/06 11:49:47;;;;;;;0.22;0.20;;;5.10;99.90;;;;;;5030151;28;20049;-90
2022/02/06 11:52:14;;;;;;;0.20;0.20;;;5.10;99.90;;;;;;5015071;28;20054;-90
2022/02/06 11:54:54;;;;;;;1.88;1.10;;;5.10;99.90;;;;;;5030245;28;20053;-90
2022/02/06 11:57:24;;;;;;;0.40;0.30;;;5.10;99.90;;;;;;5030350;28;20077;-91
2022/02/06 12:00:03;;;;;;;0.57;0.25;;;5.20;99.90;;;;;;5028107;28;20071;-89
2022/02/06 12:02:44;;;;;;;0.22;0.22;;;5.20;99.90;;;;;;5029558;28;20054;-90
2022/02/06 12:05:24;;;;;;;0.68;0.40;;;5.30;99.90;;;;;;5029429;28;20136;-90
2022/02/06 12:08:10;;;;;;;0.55;0.28;;;5.30;99.90;;;;;;5031104;28;20104;-88
2022/02/06 12:10:36;;;;;;;0.47;0.20;;;5.30;99.90;;;;;;5030989;28;20053;-89
2022/02/06 12:13:30;;;;;;;0.73;0.30;;;5.30;99.90;;;;;;5031134;28;20046;-91
2022/02/06 12:16:00;;;;;;;;;;;5.30;99.90;;;;;;5031573;28;20052;-90
2022/02/06 12:18:33;;;;;;;0.32;0.20;;;5.20;99.90;;;;;;5014820;28;19925;-86
2022/02/06 12:21:14;;;;;;;0.20;0.20;;;5.10;99.90;;;;;;5030386;28;20057;-89
2022/02/06 12:23:50;;;;;;;0.47;0.47;;;5.20;99.90;;;;;;5031263;28;20057;-92
2022/02/06 12:26:31;;;;;;;0.90;0.32;;;5.20;99.90;;;;;;5080190;28;20391;-80
2022/02/06 12:29:05;;;;;;;0.50;0.40;;;5.20;99.90;;;;;;5069430;28;20048;-80
2022/02/06 12:31:33;;;;;;;1.65;0.30;;;5.20;99.90;;;;;;5070960;28;20128;-80
2022/02/06 12:39:23;;;;;;;0.22;0.22;;;5.00;99.90;;;;;;5059620;22;20413;-79
2022/02/06 12:41:50;;;;;;;0.47;0.47;;;5.00;99.90;;;;;;5048003;28;20050;-80
2022/02/06 12:44:18;;;;;;;0.30;0.30;;;5.00;99.90;;;;;;5031095;28;20498;-82
2022/02/06 12:46:47;;;;;;;0.63;0.30;;;5.00;99.90;;;;;;5031683;28;20054;-79
2022/02/06 12:49:20;;;;;;;0.63;0.45;;;5.00;99.90;;;;;;5033977;28;20069;-82
2022/02/06 12:51:55;;;;;;;0.30;0.30;;;5.00;99.90;;;;;;5035999;28;20046;-84
2022/02/06 12:54:23;;;;;;;0.43;0.40;;;5.10;99.90;;;;;;5036642;28;20495;-81
2022/02/06 12:56:57;;;;;;;0.57;0.40;;;5.10;99.90;;;;;;5036484;28;20099;-82
2022/02/06 12:59:26;;;;;;;1.40;0.28;;;5.10;99.90;;;;;;5034835;28;20053;-82
2022/02/06 13:01:55;;;;;;;0.63;0.22;;;5.10;99.90;;;;;;5035911;28;20503;-81
2022/02/06 13:04:29;;;;;;;0.52;0.20;;;5.10;99.90;;;;;;5035532;28;20100;-81
2022/02/06 13:07:02;;;;;;;0.20;0.20;;;5.20;99.90;;;;;;5036733;28;20124;-82
2022/02/06 13:09:46;;;;;;;0.43;0.30;;;5.20;99.90;;;;;;5035466;28;20053;-80
2022/02/06 13:12:28;;;;;;;0.20;0.20;;;5.20;99.90;;;;;;5034921;28;20050;-82
2022/02/06 13:15:28;;;;;;;0.52;0.20;;;5.20;99.90;;;;;;5035878;28;20557;-82
2022/02/06 13:20:48;;;;;;;0.10;0.10;;;5.20;99.90;;;;;;5036323;28;20104;-82
2022/02/06 13:23:29;;;;;;;0.20;0.20;;;5.20;99.90;;;;;;5035014;28;20050;-83
2022/02/06 13:26:36;;;;;;;0.60;0.20;;;5.20;99.90;;;;;;5035000;28;20458;-83
2022/02/06 13:28:59;;;;;;;0.33;0.30;;;5.10;99.90;;;;;;5036389;28;20068;-83
2022/02/06 13:31:44;;;;;;;2.03;0.30;;;5.10;99.90;;;;;;5036151;28;20072;-82
2022/02/06 13:36:45;;;;;;;0.20;0.20;;;5.00;99.90;;;;;;5034488;28;20069;-84
2022/02/06 13:39:25;;;;;;;2.05;0.40;;;5.00;99.90;;;;;;5022302;28;20121;-80
2022/02/06 13:41:52;;;;;;;0.28;0.28;;;5.00;99.90;;;;;;5020706;28;20053;-80
2022/02/06 13:44:23;;;;;;;0.30;0.30;;;5.00;99.90;;;;;;5017699;28;20503;-78
2022/02/06 13:46:53;;;;;;;0.10;0.10;;;5.00;99.90;;;;;;5017776;28;20049;-79
2022/02/06 13:49:36;;;;;;;0.77;0.25;;;4.90;99.90;;;;;;5016391;28;20046;-79
2022/02/06 13:52:08;;;;;;;0.28;0.10;;;4.90;99.90;;;;;;5016767;28;20089;-78
2022/02/06 13:54:37;;;;;;;0.20;0.20;;;4.80;99.90;;;;;;5016024;28;20049;-79
2022/02/06 13:57:07;;;;;;;1.10;0.20;;;4.80;99.90;;;;;;5017490;28;20157;-78
2022/02/06 13:59:39;;;;;;;0.65;0.30;;;4.70;99.90;;;;;;5016054;28;20078;-79
2022/02/06 14:02:10;;;;;;;0.43;0.20;;;4.70;99.90;;;;;;5016858;28;20406;-79
2022/02/06 14:04:41;;;;;;;0.43;0.30;;;4.70;99.90;;;;;;5017484;28;20161;-77
2022/02/06 14:07:13;;;;;;;0.22;0.20;;;4.60;99.90;;;;;;5016761;28;20479;-78
2022/02/06 14:12:16;;;;;;;0.15;0.15;;;4.60;99.90;;;;;;5018508;28;20049;-80
2022/02/06 14:14:54;;;;;;;0.15;0.10;;;4.50;99.90;;;;;;5016780;28;20112;-79
2022/02/06 14:17:48;;;;;;;0.00;0.00;;;4.50;99.90;;;;;;5017403;28;20501;-78
2022/02/06 14:20:21;;;;;;;0.90;0.15;;;4.40;99.90;;;;;;5016972;28;20057;-78
2022/02/06 14:22:51;;;;;;;0.50;0.03;;;4.40;99.90;;;;;;5016864;28;20069;-79
2022/02/06 14:25:32;;;;;;;0.28;0.10;;;4.40;99.90;;;;;;5018486;28;20153;-79
2022/02/06 14:28:16;;;;;;;0.25;0.10;;;4.30;99.90;;;;;;5016942;28;20092;-79
2022/02/06 14:30:43;;;;;;;0.38;0.10;;;4.20;99.90;;;;;;5016953;28;20046;-78
2022/02/06 14:33:12;;;;;;;0.32;0.30;;;4.20;99.90;;;;;;5017739;28;20072;-79
2022/02/06 14:36:06;;;;;;;0.10;0.10;;;4.20;99.90;;;;;;5018112;28;20418;-79
2022/02/06 14:38:39;;;;;;;0.10;0.10;;;4.20;99.90;;;;;;5016289;28;20069;-79
2022/02/06 14:41:23;;;;;;;0.10;0.10;;;4.10;99.90;;;;;;5016881;28;20136;-79
2022/02/06 14:43:58;;;;;;;0.40;0.10;;;4.10;99.90;;;;;;5016490;28;20152;-79
2022/02/06 14:46:27;;;;;;;0.08;0.08;;;4.10;99.90;;;;;;5017782;28;20046;-81
2022/02/06 14:48:56;;;;;;;0.10;0.10;;;4.10;99.90;;;;;;5016979;28;20042;-79
2022/02/06 14:51:25;;;;;;;0.00;0.00;;;4.10;99.90;;;;;;5017584;28;20125;-79
2022/02/06 14:53:59;;;;;;;0.10;0.10;;;4.10;99.90;;;;;;5016614;28;20132;-80
2022/02/06 14:56:27;;;;;;;0.30;0.30;;;4.00;99.90;;;;;;5019207;28;20125;-78
2022/02/06 14:58:54;;;;;;;0.00;0.00;;;4.00;99.90;;;;;;5017410;28;20065;-78
2022/02/06 15:01:21;;;;;;;0.20;0.20;;;4.00;99.90;;;;;;5017181;28;20054;-80
2022/02/06 15:03:47;;;;;;;0.17;0.17;;;4.00;99.90;;;;;;5017378;28;20113;-78
2022/02/06 15:06:14;;;;;;;0.13;0.10;;;4.00;99.90;;;;;;5018832;28;20049;-79
2022/02/06 15:08:41;;;;;;;0.10;0.10;;;4.00;99.90;;;;;;5017229;28;20077;-79
2022/02/06 15:11:07;;;;;;;0.20;0.20;;;4.00;99.90;;;;;;5018556;28;20042;-80
2022/02/06 15:13:35;;;;;;;0.10;0.10;;;4.00;99.90;;;;;;5017858;28;20065;-80
2022/02/06 15:16:18;;;;;;;0.47;0.10;;;4.00;99.90;;;;;;5018017;28;20471;-79
2022/02/06 15:18:58;;;;;;;0.10;0.10;;;4.00;99.90;;;;;;5016723;28;20141;-79
2022/02/06 15:21:25;;;;;;;0.20;0.20;;;4.10;99.90;;;;;;5017563;28;20088;-83
2022/02/06 15:23:52;;;;;;;0.47;0.20;;;4.10;99.90;;;;;;5020892;28;20152;-81
2022/02/06 15:26:19;;;;;;;0.10;0.10;;;4.10;99.90;;;;;;5020438;28;20563;-82
2022/02/06 15:28:49;;;;;;;0.05;0.05;;;4.10;99.90;;;;;;5020959;28;20491;-82
2022/02/06 15:31:18;;;;;;;0.00;0.00;;;4.10;99.90;;;;;;5021740;28;20559;-83
2022/02/06 15:34:05;;;;;;;0.10;0.10;;;4.10;99.90;;;;;;5021225;28;20049;-82
2022/02/06 15:36:34;;;;;;;0.10;0.10;;;4.10;99.90;;;;;;5021373;28;20058;-81
2022/02/06 15:39:01;;;;;;;0.10;0.10;;;4.10;99.90;;;;;;5016823;28;20054;-81
2022/02/06 15:41:33;;;;;;;0.40;0.40;;;4.20;99.90;;;;;;5018627;28;20053;-82
2022/02/06 15:44:00;;;;;;;0.22;0.10;;;4.10;99.90;;;;;;5017358;28;20140;-81
2022/02/06 15:46:31;;;;;;;0.25;0.25;;;4.10;99.90;;;;;;5019175;28;20046;-80
2022/02/06 15:48:58;;;;;;;0.25;0.10;;;4.20;99.90;;;;;;5019172;28;20142;-82
2022/02/06 15:51:25;;;;;;;0.20;0.20;;;4.20;99.90;;;;;;5017934;28;20517;-81